CheckWX is a tool to help pilots better visualize weather data.  It is not intended as a substitute for an official pre-flight weather briefing.

01:07:31 UTC

CYXJ METAR
Fort St John Airport
Fort St.John, Canada
Current

1 hour ago

CYXJ 200000Z 30005G15KT 230V350 15SM SCT020 BKN160 BKN240 12/06 A3002 RMK CU4AC1CI1 SLP186 DENSITY ALT 2400FT
Observed
Aug-20 @ 00:00 UTC
Wind
  • 300° at 5 KTS
  • Gusting to 15 KTS
Visibility
15 SM
Flight Rules
VFR
Cloud Levels
  • Scattered at 2,000' AGL
  • Broken at 16,000' AGL
  • Broken at 24,000' AGL
Temperature
12°C / 54°F
Dewpoint
C / 43°F
Humidity
67%
Altimeter
30.02" Hg
Pressure
1016.62 hPa
Previous

2 hours ago

CYXJ 192300Z 31004KT 260V330 15SM BKN020 BKN160 BKN240 11/06 A3002 RMK CU6AC1CI1 AC TR SLP185 DENSITY ALT 2300FT
Observed
Aug-19 @ 23:00 UTC
Wind
  • 310° at 4 KTS
Visibility
15 SM
Flight Rules
MVFR
Cloud Levels
  • Broken at 2,000' AGL
  • Broken at 16,000' AGL
  • Broken at 24,000' AGL
Temperature
11°C / 52°F
Dewpoint
C / 43°F
Humidity
72%
Altimeter
30.02" Hg
Pressure
1016.62 hPa
Previous

3 hours ago

CYXJ 192200Z 28006G15KT 160V300 15SM BKN018 11/07 A3001 RMK SC7 SLP183 DENSITY ALT 2300FT
Observed
Aug-19 @ 22:00 UTC
Wind
  • 280° at 6 KTS
  • Gusting to 15 KTS
Visibility
15 SM
Flight Rules
MVFR
Cloud Levels
  • Broken at 1,800' AGL
Temperature
11°C / 52°F
Dewpoint
C / 45°F
Humidity
77%
Altimeter
30.01" Hg
Pressure
1016.22 hPa